sensor_id;sensor_type;location;lat;lon;timestamp;P1;durP1;ratioP1;P2;durP2;ratioP2
85257;SDS011;75669;48.038;10.158;2024-03-08T00:00:51;21.98;;;9.63;;
85257;SDS011;75669;48.038;10.158;2024-03-08T00:03:16;21.67;;;9.25;;
85257;SDS011;75669;48.038;10.158;2024-03-08T00:05:42;20.17;;;9.80;;
85257;SDS011;75669;48.038;10.158;2024-03-08T00:08:07;15.90;;;8.17;;
85257;SDS011;75669;48.038;10.158;2024-03-08T00:10:34;21.65;;;10.07;;
85257;SDS011;75669;48.038;10.158;2024-03-08T00:13:00;21.03;;;10.30;;
85257;SDS011;75669;48.038;10.158;2024-03-08T00:15:25;24.02;;;9.60;;
85257;SDS011;75669;48.038;10.158;2024-03-08T00:17:50;24.75;;;10.32;;
85257;SDS011;75669;48.038;10.158;2024-03-08T00:20:16;24.30;;;11.20;;
85257;SDS011;75669;48.038;10.158;2024-03-08T00:22:42;23.25;;;11.27;;
85257;SDS011;75669;48.038;10.158;2024-03-08T00:25:08;20.45;;;10.13;;
85257;SDS011;75669;48.038;10.158;2024-03-08T00:27:33;24.23;;;11.85;;
85257;SDS011;75669;48.038;10.158;2024-03-08T00:29:59;26.83;;;11.20;;
85257;SDS011;75669;48.038;10.158;2024-03-08T00:32:25;19.95;;;10.05;;
85257;SDS011;75669;48.038;10.158;2024-03-08T00:34:50;22.37;;;10.93;;
85257;SDS011;75669;48.038;10.158;2024-03-08T00:37:19;25.45;;;9.80;;
85257;SDS011;75669;48.038;10.158;2024-03-08T00:39:44;22.23;;;10.20;;
85257;SDS011;75669;48.038;10.158;2024-03-08T00:42:10;20.67;;;9.13;;
85257;SDS011;75669;48.038;10.158;2024-03-08T00:44:35;24.20;;;11.03;;
85257;SDS011;75669;48.038;10.158;2024-03-08T00:47:00;25.70;;;12.00;;
85257;SDS011;75669;48.038;10.158;2024-03-08T00:49:28;24.48;;;10.93;;
85257;SDS011;75669;48.038;10.158;2024-03-08T00:51:53;20.60;;;10.30;;
85257;SDS011;75669;48.038;10.158;2024-03-08T00:54:18;24.90;;;10.57;;
85257;SDS011;75669;48.038;10.158;2024-03-08T00:56:43;25.30;;;11.17;;
85257;SDS011;75669;48.038;10.158;2024-03-08T01:02:13;26.10;;;11.10;;
85257;SDS011;75669;48.038;10.158;2024-03-08T01:04:38;18.88;;;9.73;;
85257;SDS011;75669;48.038;10.158;2024-03-08T01:07:04;24.27;;;9.97;;
85257;SDS011;75669;48.038;10.158;2024-03-08T01:09:29;25.33;;;11.53;;
85257;SDS011;75669;48.038;10.158;2024-03-08T01:11:54;25.00;;;12.07;;
85257;SDS011;75669;48.038;10.158;2024-03-08T01:14:23;26.67;;;11.07;;
85257;SDS011;75669;48.038;10.158;2024-03-08T01:16:48;22.42;;;9.93;;
85257;SDS011;75669;48.038;10.158;2024-03-08T01:19:14;30.15;;;12.88;;
85257;SDS011;75669;48.038;10.158;2024-03-08T01:21:39;24.33;;;11.23;;
85257;SDS011;75669;48.038;10.158;2024-03-08T01:24:05;20.63;;;9.33;;
85257;SDS011;75669;48.038;10.158;2024-03-08T01:26:30;27.20;;;10.37;;
85257;SDS011;75669;48.038;10.158;2024-03-08T01:28:55;35.10;;;13.77;;
85257;SDS011;75669;48.038;10.158;2024-03-08T01:31:21;28.33;;;13.50;;
85257;SDS011;75669;48.038;10.158;2024-03-08T01:33:46;25.10;;;11.60;;
85257;SDS011;75669;48.038;10.158;2024-03-08T01:36:11;26.00;;;12.03;;
85257;SDS011;75669;48.038;10.158;2024-03-08T01:38:40;26.92;;;11.65;;
85257;SDS011;75669;48.038;10.158;2024-03-08T01:41:05;29.50;;;11.83;;
85257;SDS011;75669;48.038;10.158;2024-03-08T01:43:30;23.57;;;11.23;;
85257;SDS011;75669;48.038;10.158;2024-03-08T01:45:59;25.50;;;11.95;;
85257;SDS011;75669;48.038;10.158;2024-03-08T01:48:24;26.55;;;12.10;;
85257;SDS011;75669;48.038;10.158;2024-03-08T01:50:50;21.08;;;9.25;;
85257;SDS011;75669;48.038;10.158;2024-03-08T01:53:17;23.77;;;10.40;;
85257;SDS011;75669;48.038;10.158;2024-03-08T01:55:42;30.13;;;11.57;;
85257;SDS011;75669;48.038;10.158;2024-03-08T01:58:09;27.00;;;10.77;;
85257;SDS011;75669;48.038;10.158;2024-03-08T02:00:35;26.52;;;12.30;;
85257;SDS011;75669;48.038;10.158;2024-03-08T02:03:01;26.63;;;11.77;;
85257;SDS011;75669;48.038;10.158;2024-03-08T02:05:26;26.67;;;11.57;;
85257;SDS011;75669;48.038;10.158;2024-03-08T02:07:52;22.83;;;11.10;;
85257;SDS011;75669;48.038;10.158;2024-03-08T02:10:17;25.20;;;11.97;;
85257;SDS011;75669;48.038;10.158;2024-03-08T02:12:43;23.85;;;11.38;;
85257;SDS011;75669;48.038;10.158;2024-03-08T02:15:08;21.67;;;10.00;;
85257;SDS011;75669;48.038;10.158;2024-03-08T02:17:34;23.57;;;10.70;;
85257;SDS011;75669;48.038;10.158;2024-03-08T02:19:59;29.23;;;13.10;;
85257;SDS011;75669;48.038;10.158;2024-03-08T02:22:26;32.30;;;12.57;;
85257;SDS011;75669;48.038;10.158;2024-03-08T02:24:51;24.40;;;12.95;;
85257;SDS011;75669;48.038;10.158;2024-03-08T02:27:22;31.37;;;13.63;;
85257;SDS011;75669;48.038;10.158;2024-03-08T02:29:48;29.15;;;13.38;;
85257;SDS011;75669;48.038;10.158;2024-03-08T02:32:13;32.60;;;13.73;;
85257;SDS011;75669;48.038;10.158;2024-03-08T02:34:38;28.03;;;12.07;;
85257;SDS011;75669;48.038;10.158;2024-03-08T02:37:04;29.10;;;9.95;;
85257;SDS011;75669;48.038;10.158;2024-03-08T02:39:29;26.70;;;11.63;;
85257;SDS011;75669;48.038;10.158;2024-03-08T02:41:54;23.17;;;10.73;;
85257;SDS011;75669;48.038;10.158;2024-03-08T02:44:20;24.43;;;11.20;;
85257;SDS011;75669;48.038;10.158;2024-03-08T02:46:46;24.55;;;11.63;;
85257;SDS011;75669;48.038;10.158;2024-03-08T02:49:11;26.77;;;12.40;;
85257;SDS011;75669;48.038;10.158;2024-03-08T02:51:37;25.47;;;11.63;;
85257;SDS011;75669;48.038;10.158;2024-03-08T02:54:02;26.00;;;11.43;;
85257;SDS011;75669;48.038;10.158;2024-03-08T02:56:29;27.55;;;12.82;;
85257;SDS011;75669;48.038;10.158;2024-03-08T02:58:55;29.50;;;12.75;;
85257;SDS011;75669;48.038;10.158;2024-03-08T03:01:20;25.93;;;11.07;;
85257;SDS011;75669;48.038;10.158;2024-03-08T03:03:45;30.67;;;13.20;;
85257;SDS011;75669;48.038;10.158;2024-03-08T03:06:12;26.52;;;12.05;;
85257;SDS011;75669;48.038;10.158;2024-03-08T03:08:37;32.87;;;12.80;;
85257;SDS011;75669;48.038;10.158;2024-03-08T03:11:03;25.20;;;11.30;;
85257;SDS011;75669;48.038;10.158;2024-03-08T03:13:28;33.77;;;14.23;;
85257;SDS011;75669;48.038;10.158;2024-03-08T03:15:54;32.72;;;14.20;;
85257;SDS011;75669;48.038;10.158;2024-03-08T03:18:20;25.23;;;11.87;;
85257;SDS011;75669;48.038;10.158;2024-03-08T03:20:48;26.38;;;12.05;;
85257;SDS011;75669;48.038;10.158;2024-03-08T03:23:14;32.15;;;13.00;;
85257;SDS011;75669;48.038;10.158;2024-03-08T03:25:39;31.15;;;14.15;;
85257;SDS011;75669;48.038;10.158;2024-03-08T03:28:06;31.20;;;13.93;;
85257;SDS011;75669;48.038;10.158;2024-03-08T03:30:35;31.27;;;13.82;;
85257;SDS011;75669;48.038;10.158;2024-03-08T03:33:01;27.95;;;12.57;;
85257;SDS011;75669;48.038;10.158;2024-03-08T03:35:27;26.60;;;11.40;;
85257;SDS011;75669;48.038;10.158;2024-03-08T03:37:52;25.45;;;10.48;;
85257;SDS011;75669;48.038;10.158;2024-03-08T03:40:47;26.92;;;13.27;;
85257;SDS011;75669;48.038;10.158;2024-03-08T03:43:13;34.70;;;13.82;;
85257;SDS011;75669;48.038;10.158;2024-03-08T03:45:39;33.83;;;13.20;;
85257;SDS011;75669;48.038;10.158;2024-03-08T03:48:04;29.02;;;12.90;;
85257;SDS011;75669;48.038;10.158;2024-03-08T03:50:31;30.88;;;12.60;;
85257;SDS011;75669;48.038;10.158;2024-03-08T03:52:59;29.20;;;13.07;;
85257;SDS011;75669;48.038;10.158;2024-03-08T03:55:24;22.50;;;12.00;;
85257;SDS011;75669;48.038;10.158;2024-03-08T03:57:49;29.57;;;11.70;;
85257;SDS011;75669;48.038;10.158;2024-03-08T04:00:15;28.37;;;12.50;;
85257;SDS011;75669;48.038;10.158;2024-03-08T04:02:40;29.52;;;12.57;;
85257;SDS011;75669;48.038;10.158;2024-03-08T04:05:06;34.28;;;13.27;;
85257;SDS011;75669;48.038;10.158;2024-03-08T04:07:31;31.13;;;13.10;;
85257;SDS011;75669;48.038;10.158;2024-03-08T04:09:57;32.10;;;12.87;;
85257;SDS011;75669;48.038;10.158;2024-03-08T04:12:22;26.60;;;11.90;;
85257;SDS011;75669;48.038;10.158;2024-03-08T04:14:48;28.63;;;12.25;;
85257;SDS011;75669;48.038;10.158;2024-03-08T04:17:13;31.45;;;13.18;;
85257;SDS011;75669;48.038;10.158;2024-03-08T04:19:38;32.37;;;14.67;;
85257;SDS011;75669;48.038;10.158;2024-03-08T04:22:05;27.77;;;12.75;;
85257;SDS011;75669;48.038;10.158;2024-03-08T04:24:30;30.75;;;14.02;;
85257;SDS011;75669;48.038;10.158;2024-03-08T04:26:55;30.58;;;14.18;;
85257;SDS011;75669;48.038;10.158;2024-03-08T04:29:21;29.33;;;12.30;;
85257;SDS011;75669;48.038;10.158;2024-03-08T04:31:47;31.92;;;12.38;;
85257;SDS011;75669;48.038;10.158;2024-03-08T04:34:12;34.90;;;15.63;;
85257;SDS011;75669;48.038;10.158;2024-03-08T04:36:38;31.90;;;13.43;;
85257;SDS011;75669;48.038;10.158;2024-03-08T04:39:03;33.63;;;12.93;;
85257;SDS011;75669;48.038;10.158;2024-03-08T04:41:28;32.17;;;13.47;;
85257;SDS011;75669;48.038;10.158;2024-03-08T04:43:55;36.28;;;14.90;;
85257;SDS011;75669;48.038;10.158;2024-03-08T04:46:22;33.67;;;13.55;;
85257;SDS011;75669;48.038;10.158;2024-03-08T04:48:47;30.48;;;12.73;;
85257;SDS011;75669;48.038;10.158;2024-03-08T04:51:13;34.37;;;13.77;;
85257;SDS011;75669;48.038;10.158;2024-03-08T04:53:38;28.03;;;12.63;;
85257;SDS011;75669;48.038;10.158;2024-03-08T04:56:03;39.17;;;15.43;;
85257;SDS011;75669;48.038;10.158;2024-03-08T04:58:32;35.65;;;13.50;;
85257;SDS011;75669;48.038;10.158;2024-03-08T05:00:57;30.23;;;12.00;;
85257;SDS011;75669;48.038;10.158;2024-03-08T05:03:22;37.77;;;14.70;;
85257;SDS011;75669;48.038;10.158;2024-03-08T05:05:50;32.15;;;13.75;;
85257;SDS011;75669;48.038;10.158;2024-03-08T05:08:16;25.43;;;11.73;;
85257;SDS011;75669;48.038;10.158;2024-03-08T05:10:43;25.42;;;11.38;;
85257;SDS011;75669;48.038;10.158;2024-03-08T05:13:09;30.75;;;13.05;;
85257;SDS011;75669;48.038;10.158;2024-03-08T05:15:34;33.43;;;13.77;;
85257;SDS011;75669;48.038;10.158;2024-03-08T05:18:00;30.95;;;12.77;;
85257;SDS011;75669;48.038;10.158;2024-03-08T05:20:25;29.53;;;11.93;;
85257;SDS011;75669;48.038;10.158;2024-03-08T05:22:50;37.05;;;14.07;;
85257;SDS011;75669;48.038;10.158;2024-03-08T05:25:16;32.72;;;13.75;;
85257;SDS011;75669;48.038;10.158;2024-03-08T05:27:42;31.08;;;11.70;;
85257;SDS011;75669;48.038;10.158;2024-03-08T05:30:08;27.40;;;11.20;;
85257;SDS011;75669;48.038;10.158;2024-03-08T05:32:39;26.45;;;12.07;;
85257;SDS011;75669;48.038;10.158;2024-03-08T05:35:04;30.97;;;11.70;;
85257;SDS011;75669;48.038;10.158;2024-03-08T05:37:32;27.08;;;12.60;;
85257;SDS011;75669;48.038;10.158;2024-03-08T05:39:57;28.40;;;13.03;;
85257;SDS011;75669;48.038;10.158;2024-03-08T05:42:23;31.40;;;13.55;;
85257;SDS011;75669;48.038;10.158;2024-03-08T05:44:48;29.57;;;12.70;;
85257;SDS011;75669;48.038;10.158;2024-03-08T05:47:14;28.10;;;12.48;;
85257;SDS011;75669;48.038;10.158;2024-03-08T05:49:41;30.33;;;12.93;;
85257;SDS011;75669;48.038;10.158;2024-03-08T05:52:06;26.88;;;11.15;;
85257;SDS011;75669;48.038;10.158;2024-03-08T05:54:32;28.27;;;12.90;;
85257;SDS011;75669;48.038;10.158;2024-03-08T05:56:58;31.05;;;12.48;;
85257;SDS011;75669;48.038;10.158;2024-03-08T05:59:23;23.17;;;11.00;;
85257;SDS011;75669;48.038;10.158;2024-03-08T06:01:48;26.67;;;12.20;;
85257;SDS011;75669;48.038;10.158;2024-03-08T06:04:14;32.40;;;15.55;;
85257;SDS011;75669;48.038;10.158;2024-03-08T06:06:39;35.77;;;15.87;;
85257;SDS011;75669;48.038;10.158;2024-03-08T06:09:04;31.10;;;12.27;;
85257;SDS011;75669;48.038;10.158;2024-03-08T06:11:42;29.55;;;11.38;;
85257;SDS011;75669;48.038;10.158;2024-03-08T06:14:07;26.53;;;12.47;;
85257;SDS011;75669;48.038;10.158;2024-03-08T06:16:32;29.03;;;12.57;;
85257;SDS011;75669;48.038;10.158;2024-03-08T06:18:58;29.70;;;12.32;;
85257;SDS011;75669;48.038;10.158;2024-03-08T06:21:27;30.95;;;12.65;;
85257;SDS011;75669;48.038;10.158;2024-03-08T06:23:55;30.60;;;12.33;;
85257;SDS011;75669;48.038;10.158;2024-03-08T06:26:22;26.58;;;11.70;;
85257;SDS011;75669;48.038;10.158;2024-03-08T06:28:48;30.30;;;13.37;;
85257;SDS011;75669;48.038;10.158;2024-03-08T06:31:13;29.80;;;12.63;;
85257;SDS011;75669;48.038;10.158;2024-03-08T06:33:39;22.05;;;10.95;;
85257;SDS011;75669;48.038;10.158;2024-03-08T06:36:05;25.37;;;11.37;;
85257;SDS011;75669;48.038;10.158;2024-03-08T06:38:30;27.00;;;10.63;;
85257;SDS011;75669;48.038;10.158;2024-03-08T06:40:55;26.17;;;10.80;;
85257;SDS011;75669;48.038;10.158;2024-03-08T06:43:21;23.50;;;9.95;;
85257;SDS011;75669;48.038;10.158;2024-03-08T06:45:46;24.37;;;11.20;;
85257;SDS011;75669;48.038;10.158;2024-03-08T06:48:19;26.83;;;11.30;;
85257;SDS011;75669;48.038;10.158;2024-03-08T06:50:45;25.80;;;10.25;;
85257;SDS011;75669;48.038;10.158;2024-03-08T06:53:10;23.65;;;10.95;;
85257;SDS011;75669;48.038;10.158;2024-03-08T06:55:35;30.58;;;12.68;;
85257;SDS011;75669;48.038;10.158;2024-03-08T06:58:01;26.80;;;11.97;;
85257;SDS011;75669;48.038;10.158;2024-03-08T07:00:26;26.30;;;11.40;;
85257;SDS011;75669;48.038;10.158;2024-03-08T07:02:53;24.35;;;11.18;;
85257;SDS011;75669;48.038;10.158;2024-03-08T07:05:19;24.10;;;10.18;;
85257;SDS011;75669;48.038;10.158;2024-03-08T07:07:44;23.95;;;10.45;;
85257;SDS011;75669;48.038;10.158;2024-03-08T07:10:10;26.15;;;11.68;;
85257;SDS011;75669;48.038;10.158;2024-03-08T07:12:40;26.10;;;11.80;;
85257;SDS011;75669;48.038;10.158;2024-03-08T07:15:05;25.20;;;9.70;;
85257;SDS011;75669;48.038;10.158;2024-03-08T07:17:31;21.65;;;9.95;;
85257;SDS011;75669;48.038;10.158;2024-03-08T07:19:56;25.77;;;10.90;;
85257;SDS011;75669;48.038;10.158;2024-03-08T07:22:24;26.95;;;11.13;;
85257;SDS011;75669;48.038;10.158;2024-03-08T07:24:49;23.50;;;9.30;;
85257;SDS011;75669;48.038;10.158;2024-03-08T07:27:35;25.33;;;10.43;;
85257;SDS011;75669;48.038;10.158;2024-03-08T07:30:01;22.50;;;10.60;;
85257;SDS011;75669;48.038;10.158;2024-03-08T07:32:26;22.23;;;10.33;;
85257;SDS011;75669;48.038;10.158;2024-03-08T07:34:54;26.23;;;10.20;;
85257;SDS011;75669;48.038;10.158;2024-03-08T07:37:20;20.35;;;8.65;;
85257;SDS011;75669;48.038;10.158;2024-03-08T07:39:46;22.92;;;9.32;;
85257;SDS011;75669;48.038;10.158;2024-03-08T07:42:11;20.00;;;8.57;;
85257;SDS011;75669;48.038;10.158;2024-03-08T07:44:37;22.23;;;9.63;;
85257;SDS011;75669;48.038;10.158;2024-03-08T07:47:02;22.40;;;10.40;;
85257;SDS011;75669;48.038;10.158;2024-03-08T07:49:28;20.80;;;9.68;;
85257;SDS011;75669;48.038;10.158;2024-03-08T07:51:54;35.60;;;14.35;;
85257;SDS011;75669;48.038;10.158;2024-03-08T07:54:19;25.40;;;10.43;;
85257;SDS011;75669;48.038;10.158;2024-03-08T07:56:45;23.05;;;10.40;;
85257;SDS011;75669;48.038;10.158;2024-03-08T07:59:10;23.15;;;9.50;;
85257;SDS011;75669;48.038;10.158;2024-03-08T08:01:37;24.92;;;10.30;;
85257;SDS011;75669;48.038;10.158;2024-03-08T08:04:02;20.90;;;11.07;;
85257;SDS011;75669;48.038;10.158;2024-03-08T08:06:27;25.47;;;11.20;;
85257;SDS011;75669;48.038;10.158;2024-03-08T08:08:53;24.52;;;10.30;;
85257;SDS011;75669;48.038;10.158;2024-03-08T08:11:18;26.85;;;11.70;;
85257;SDS011;75669;48.038;10.158;2024-03-08T08:13:45;23.67;;;11.75;;
85257;SDS011;75669;48.038;10.158;2024-03-08T08:16:12;25.67;;;11.95;;
85257;SDS011;75669;48.038;10.158;2024-03-08T08:18:38;25.20;;;11.50;;
85257;SDS011;75669;48.038;10.158;2024-03-08T08:21:04;23.05;;;10.45;;
85257;SDS011;75669;48.038;10.158;2024-03-08T08:23:31;24.10;;;11.32;;
85257;SDS011;75669;48.038;10.158;2024-03-08T08:25:56;27.47;;;11.30;;
85257;SDS011;75669;48.038;10.158;2024-03-08T08:28:21;28.70;;;11.93;;
85257;SDS011;75669;48.038;10.158;2024-03-08T08:30:46;24.70;;;10.77;;
85257;SDS011;75669;48.038;10.158;2024-03-08T08:33:13;22.23;;;9.73;;
85257;SDS011;75669;48.038;10.158;2024-03-08T08:35:39;26.77;;;12.23;;
85257;SDS011;75669;48.038;10.158;2024-03-08T08:38:04;27.25;;;11.65;;
85257;SDS011;75669;48.038;10.158;2024-03-08T08:40:29;25.02;;;10.45;;
85257;SDS011;75669;48.038;10.158;2024-03-08T08:42:57;27.73;;;10.05;;
85257;SDS011;75669;48.038;10.158;2024-03-08T08:45:25;24.38;;;9.95;;
85257;SDS011;75669;48.038;10.158;2024-03-08T08:47:51;29.25;;;10.75;;
85257;SDS011;75669;48.038;10.158;2024-03-08T08:50:16;26.60;;;10.85;;
85257;SDS011;75669;48.038;10.158;2024-03-08T08:52:47;25.45;;;10.38;;
85257;SDS011;75669;48.038;10.158;2024-03-08T08:55:13;21.20;;;9.43;;
85257;SDS011;75669;48.038;10.158;2024-03-08T08:57:39;24.98;;;10.35;;
85257;SDS011;75669;48.038;10.158;2024-03-08T09:00:05;23.50;;;8.00;;
85257;SDS011;75669;48.038;10.158;2024-03-08T09:02:32;21.45;;;9.52;;
85257;SDS011;75669;48.038;10.158;2024-03-08T09:04:57;21.20;;;10.40;;
85257;SDS011;75669;48.038;10.158;2024-03-08T09:07:22;19.83;;;9.30;;
85257;SDS011;75669;48.038;10.158;2024-03-08T09:09:47;17.50;;;8.23;;
85257;SDS011;75669;48.038;10.158;2024-03-08T09:12:13;19.03;;;8.77;;
85257;SDS011;75669;48.038;10.158;2024-03-08T09:14:39;17.80;;;8.33;;
85257;SDS011;75669;48.038;10.158;2024-03-08T09:17:05;20.23;;;9.00;;
85257;SDS011;75669;48.038;10.158;2024-03-08T09:19:30;18.97;;;8.80;;
85257;SDS011;75669;48.038;10.158;2024-03-08T09:21:55;18.35;;;8.57;;
85257;SDS011;75669;48.038;10.158;2024-03-08T09:24:20;17.80;;;8.37;;
85257;SDS011;75669;48.038;10.158;2024-03-08T09:26:46;20.73;;;9.50;;
85257;SDS011;75669;48.038;10.158;2024-03-08T09:29:11;23.58;;;11.40;;
85257;SDS011;75669;48.038;10.158;2024-03-08T09:31:36;17.80;;;8.80;;
85257;SDS011;75669;48.038;10.158;2024-03-08T09:34:03;21.27;;;8.73;;
85257;SDS011;75669;48.038;10.158;2024-03-08T09:36:28;21.20;;;9.82;;
85257;SDS011;75669;48.038;10.158;2024-03-08T09:38:53;21.80;;;10.13;;
85257;SDS011;75669;48.038;10.158;2024-03-08T09:41:18;23.30;;;11.17;;
85257;SDS011;75669;48.038;10.158;2024-03-08T09:43:44;24.87;;;11.77;;
85257;SDS011;75669;48.038;10.158;2024-03-08T09:46:10;21.55;;;9.43;;
85257;SDS011;75669;48.038;10.158;2024-03-08T09:48:36;24.58;;;10.18;;
85257;SDS011;75669;48.038;10.158;2024-03-08T09:51:02;20.02;;;7.72;;
85257;SDS011;75669;48.038;10.158;2024-03-08T09:53:28;21.35;;;9.55;;
85257;SDS011;75669;48.038;10.158;2024-03-08T09:55:53;22.23;;;10.02;;
85257;SDS011;75669;48.038;10.158;2024-03-08T09:58:18;21.10;;;8.93;;
85257;SDS011;75669;48.038;10.158;2024-03-08T10:00:59;19.80;;;8.70;;
85257;SDS011;75669;48.038;10.158;2024-03-08T10:03:27;20.73;;;9.25;;
85257;SDS011;75669;48.038;10.158;2024-03-08T10:05:52;18.40;;;8.77;;
85257;SDS011;75669;48.038;10.158;2024-03-08T10:08:21;23.80;;;10.48;;
85257;SDS011;75669;48.038;10.158;2024-03-08T10:10:46;19.87;;;9.03;;
85257;SDS011;75669;48.038;10.158;2024-03-08T10:13:11;21.93;;;10.07;;
85257;SDS011;75669;48.038;10.158;2024-03-08T10:15:39;20.48;;;8.65;;
85257;SDS011;75669;48.038;10.158;2024-03-08T10:18:05;19.65;;;9.25;;
85257;SDS011;75669;48.038;10.158;2024-03-08T10:20:30;20.13;;;9.77;;
85257;SDS011;75669;48.038;10.158;2024-03-08T10:23:02;20.92;;;9.90;;
85257;SDS011;75669;48.038;10.158;2024-03-08T10:25:29;22.42;;;9.60;;
85257;SDS011;75669;48.038;10.158;2024-03-08T10:27:55;20.10;;;8.93;;
85257;SDS011;75669;48.038;10.158;2024-03-08T10:30:21;19.75;;;9.10;;
85257;SDS011;75669;48.038;10.158;2024-03-08T10:32:46;20.63;;;8.63;;
85257;SDS011;75669;48.038;10.158;2024-03-08T10:35:12;19.13;;;8.75;;
85257;SDS011;75669;48.038;10.158;2024-03-08T10:37:44;20.50;;;9.10;;
85257;SDS011;75669;48.038;10.158;2024-03-08T10:40:12;16.15;;;8.10;;
85257;SDS011;75669;48.038;10.158;2024-03-08T10:42:47;21.17;;;9.15;;
85257;SDS011;75669;48.038;10.158;2024-03-08T10:45:19;20.52;;;10.02;;
85257;SDS011;75669;48.038;10.158;2024-03-08T10:47:49;21.98;;;9.40;;
85257;SDS011;75669;48.038;10.158;2024-03-08T10:50:20;21.40;;;9.93;;
85257;SDS011;75669;48.038;10.158;2024-03-08T10:52:50;18.50;;;8.43;;
85257;SDS011;75669;48.038;10.158;2024-03-08T10:55:16;19.65;;;8.93;;
85257;SDS011;75669;48.038;10.158;2024-03-08T10:57:42;17.52;;;7.80;;
85257;SDS011;75669;48.038;10.158;2024-03-08T11:00:07;19.27;;;9.87;;
85257;SDS011;75669;48.038;10.158;2024-03-08T11:02:36;19.02;;;9.10;;
85257;SDS011;75669;48.038;10.158;2024-03-08T11:05:02;21.80;;;10.10;;
85257;SDS011;75669;48.038;10.158;2024-03-08T11:07:30;18.38;;;7.95;;
85257;SDS011;75669;48.038;10.158;2024-03-08T11:09:59;19.73;;;9.13;;
85257;SDS011;75669;48.038;10.158;2024-03-08T11:12:29;22.80;;;10.20;;
85257;SDS011;75669;48.038;10.158;2024-03-08T11:15:01;16.52;;;8.88;;
85257;SDS011;75669;48.038;10.158;2024-03-08T11:19:57;19.17;;;9.63;;
85257;SDS011;75669;48.038;10.158;2024-03-08T11:22:29;20.55;;;10.48;;
85257;SDS011;75669;48.038;10.158;2024-03-08T11:25:04;22.25;;;10.60;;
85257;SDS011;75669;48.038;10.158;2024-03-08T11:27:35;18.65;;;8.88;;
85257;SDS011;75669;48.038;10.158;2024-03-08T11:30:04;17.67;;;8.63;;
85257;SDS011;75669;48.038;10.158;2024-03-08T11:32:36;16.45;;;8.85;;
85257;SDS011;75669;48.038;10.158;2024-03-08T11:35:04;17.50;;;9.20;;
85257;SDS011;75669;48.038;10.158;2024-03-08T11:37:32;17.13;;;8.55;;
85257;SDS011;75669;48.038;10.158;2024-03-08T11:39:59;19.05;;;9.48;;
85257;SDS011;75669;48.038;10.158;2024-03-08T11:42:26;19.00;;;9.23;;
85257;SDS011;75669;48.038;10.158;2024-03-08T11:44:51;17.55;;;8.85;;
85257;SDS011;75669;48.038;10.158;2024-03-08T11:47:17;19.50;;;9.85;;
85257;SDS011;75669;48.038;10.158;2024-03-08T11:49:42;21.27;;;10.13;;
85257;SDS011;75669;48.038;10.158;2024-03-08T11:52:13;20.92;;;9.20;;
85257;SDS011;75669;48.038;10.158;2024-03-08T11:57:04;22.48;;;10.38;;
85257;SDS011;75669;48.038;10.158;2024-03-08T11:59:29;18.47;;;9.10;;
85257;SDS011;75669;48.038;10.158;2024-03-08T12:02:02;22.75;;;10.63;;
85257;SDS011;75669;48.038;10.158;2024-03-08T12:04:28;18.13;;;10.10;;
85257;SDS011;75669;48.038;10.158;2024-03-08T12:06:53;17.08;;;8.27;;
85257;SDS011;75669;48.038;10.158;2024-03-08T12:09:19;22.97;;;9.40;;
85257;SDS011;75669;48.038;10.158;2024-03-08T12:11:48;16.95;;;8.10;;
85257;SDS011;75669;48.038;10.158;2024-03-08T12:14:16;19.08;;;7.95;;
85257;SDS011;75669;48.038;10.158;2024-03-08T12:16:41;15.80;;;7.70;;
85257;SDS011;75669;48.038;10.158;2024-03-08T12:19:07;17.65;;;8.98;;
85257;SDS011;75669;48.038;10.158;2024-03-08T12:21:34;20.67;;;9.35;;
85257;SDS011;75669;48.038;10.158;2024-03-08T12:24:01;17.88;;;9.48;;
85257;SDS011;75669;48.038;10.158;2024-03-08T12:26:27;17.70;;;10.00;;
85257;SDS011;75669;48.038;10.158;2024-03-08T12:28:53;17.70;;;9.47;;
85257;SDS011;75669;48.038;10.158;2024-03-08T12:31:18;17.88;;;8.82;;
85257;SDS011;75669;48.038;10.158;2024-03-08T12:36:14;21.40;;;10.27;;
85257;SDS011;75669;48.038;10.158;2024-03-08T12:38:39;19.52;;;9.20;;
85257;SDS011;75669;48.038;10.158;2024-03-08T12:41:05;21.20;;;11.18;;
85257;SDS011;75669;48.038;10.158;2024-03-08T12:43:30;21.37;;;11.83;;
85257;SDS011;75669;48.038;10.158;2024-03-08T12:45:56;19.63;;;9.52;;
85257;SDS011;75669;48.038;10.158;2024-03-08T12:48:22;20.42;;;9.43;;
85257;SDS011;75669;48.038;10.158;2024-03-08T12:50:47;19.33;;;8.43;;
85257;SDS011;75669;48.038;10.158;2024-03-08T12:53:13;18.67;;;9.30;;
85257;SDS011;75669;48.038;10.158;2024-03-08T12:55:38;17.58;;;9.02;;
85257;SDS011;75669;48.038;10.158;2024-03-08T12:58:03;18.55;;;9.80;;
85257;SDS011;75669;48.038;10.158;2024-03-08T13:00:30;18.77;;;9.02;;
85257;SDS011;75669;48.038;10.158;2024-03-08T13:02:56;19.20;;;9.27;;
85257;SDS011;75669;48.038;10.158;2024-03-08T13:05:21;16.87;;;7.77;;
85257;SDS011;75669;48.038;10.158;2024-03-08T13:07:46;17.77;;;8.52;;
85257;SDS011;75669;48.038;10.158;2024-03-08T13:10:15;19.17;;;9.88;;
85257;SDS011;75669;48.038;10.158;2024-03-08T13:12:44;18.45;;;9.50;;
85257;SDS011;75669;48.038;10.158;2024-03-08T13:15:09;18.90;;;9.15;;
85257;SDS011;75669;48.038;10.158;2024-03-08T13:20:11;18.92;;;8.57;;
85257;SDS011;75669;48.038;10.158;2024-03-08T13:22:41;20.83;;;9.90;;
85257;SDS011;75669;48.038;10.158;2024-03-08T13:25:06;19.40;;;8.77;;
85257;SDS011;75669;48.038;10.158;2024-03-08T13:27:36;17.80;;;9.13;;
85257;SDS011;75669;48.038;10.158;2024-03-08T13:30:02;18.40;;;9.40;;
85257;SDS011;75669;48.038;10.158;2024-03-08T13:32:27;19.60;;;9.63;;
85257;SDS011;75669;48.038;10.158;2024-03-08T13:34:52;17.57;;;8.77;;
85257;SDS011;75669;48.038;10.158;2024-03-08T13:37:19;17.35;;;8.77;;
85257;SDS011;75669;48.038;10.158;2024-03-08T13:39:44;16.92;;;8.40;;
85257;SDS011;75669;48.038;10.158;2024-03-08T13:42:10;15.33;;;8.33;;
85257;SDS011;75669;48.038;10.158;2024-03-08T13:44:38;15.10;;;7.45;;
85257;SDS011;75669;48.038;10.158;2024-03-08T13:47:03;17.50;;;8.63;;
85257;SDS011;75669;48.038;10.158;2024-03-08T13:49:29;16.45;;;8.88;;
85257;SDS011;75669;48.038;10.158;2024-03-08T13:51:55;19.35;;;9.35;;
85257;SDS011;75669;48.038;10.158;2024-03-08T13:54:20;15.73;;;7.93;;
85257;SDS011;75669;48.038;10.158;2024-03-08T13:56:46;18.58;;;8.55;;
85257;SDS011;75669;48.038;10.158;2024-03-08T13:59:11;17.75;;;8.88;;
85257;SDS011;75669;48.038;10.158;2024-03-08T14:01:37;16.83;;;8.63;;
85257;SDS011;75669;48.038;10.158;2024-03-08T14:04:02;17.47;;;8.83;;
85257;SDS011;75669;48.038;10.158;2024-03-08T14:06:28;19.58;;;8.80;;
85257;SDS011;75669;48.038;10.158;2024-03-08T14:08:54;18.67;;;8.63;;
85257;SDS011;75669;48.038;10.158;2024-03-08T14:11:22;15.98;;;7.97;;
85257;SDS011;75669;48.038;10.158;2024-03-08T14:13:49;17.30;;;8.73;;
85257;SDS011;75669;48.038;10.158;2024-03-08T14:16:14;19.38;;;8.57;;
85257;SDS011;75669;48.038;10.158;2024-03-08T14:18:40;17.92;;;8.45;;
85257;SDS011;75669;48.038;10.158;2024-03-08T14:21:05;17.03;;;10.27;;